createdAt,value
2023-02-14T00:00:41.559Z,3.13
2023-02-14T00:01:46.274Z,3.15
2023-02-14T00:02:50.180Z,3.06
2023-02-14T00:03:53.381Z,3.01
2023-02-14T00:04:56.630Z,3.04
2023-02-14T00:06:13.044Z,2.99
2023-02-14T00:07:16.307Z,2.86
2023-02-14T00:08:19.589Z,2.91
2023-02-14T00:09:23.301Z,2.80
2023-02-14T00:10:26.608Z,2.91
2023-02-14T00:11:30.303Z,2.91
2023-02-14T00:12:33.380Z,2.79
2023-02-14T00:13:36.840Z,2.77
2023-02-14T00:14:58.299Z,2.77
2023-02-14T00:16:01.458Z,2.76
2023-02-14T00:17:05.023Z,2.76
2023-02-14T00:18:08.271Z,2.83
2023-02-14T00:19:16.221Z,2.85
2023-02-14T00:20:19.599Z,2.80
2023-02-14T00:21:22.623Z,2.92
2023-02-14T00:22:25.909Z,2.94
2023-02-14T00:23:29.385Z,2.88
2023-02-14T00:24:32.696Z,2.94
2023-02-14T00:25:36.233Z,2.95
2023-02-14T00:26:39.945Z,2.86
2023-02-14T00:27:43.196Z,2.85
2023-02-14T00:28:46.639Z,2.91
2023-02-14T00:29:49.888Z,2.86
2023-02-14T00:30:53.100Z,2.76
2023-02-14T00:31:56.438Z,2.81
2023-02-14T00:32:59.800Z,2.89
2023-02-14T00:34:03.688Z,2.86
2023-02-14T00:35:08.086Z,2.78
2023-02-14T00:36:12.384Z,2.71
2023-02-14T00:37:15.416Z,2.71
2023-02-14T00:38:18.550Z,2.60
2023-02-14T00:39:21.753Z,2.52
2023-02-14T00:40:25.062Z,2.55
2023-02-14T00:41:28.068Z,2.54
2023-02-14T00:42:31.189Z,2.51
2023-02-14T00:43:34.471Z,2.53
2023-02-14T00:44:38.369Z,2.62
2023-02-14T00:45:41.657Z,2.62
2023-02-14T00:46:44.901Z,2.72
2023-02-14T00:47:48.109Z,2.94
2023-02-14T00:48:52.332Z,3.06
2023-02-14T00:49:55.560Z,2.98
2023-02-14T00:50:59.278Z,3.06
2023-02-14T00:52:02.518Z,2.96
2023-02-14T00:53:05.632Z,2.98
2023-02-14T00:54:08.684Z,2.92
2023-02-14T00:55:11.783Z,2.97
2023-02-14T00:56:15.949Z,3.07
2023-02-14T00:57:18.942Z,3.15
2023-02-14T00:58:22.098Z,3.17
2023-02-14T00:59:25.433Z,3.18
2023-02-14T01:00:28.706Z,3.15
2023-02-14T01:01:32.047Z,3.15
2023-02-14T01:02:35.286Z,3.11
2023-02-14T01:03:38.826Z,3.18
2023-02-14T01:04:42.135Z,3.27
2023-02-14T01:05:45.690Z,3.33
2023-02-14T01:06:48.818Z,3.26
2023-02-14T01:07:52.360Z,3.25
2023-02-14T01:08:55.359Z,3.22
2023-02-14T01:09:58.544Z,3.14
2023-02-14T01:11:20.121Z,3.11
2023-02-14T01:12:23.362Z,3.30
2023-02-14T01:13:26.460Z,3.36
2023-02-14T01:14:29.474Z,3.36
2023-02-14T01:15:33.227Z,3.18
2023-02-14T01:16:38.851Z,3.21
2023-02-14T01:17:41.995Z,3.14
2023-02-14T01:18:46.314Z,3.07
2023-02-14T01:19:52.991Z,2.97
2023-02-14T01:20:56.030Z,3.02
2023-02-14T01:21:59.405Z,2.95
2023-02-14T01:23:02.695Z,2.97
2023-02-14T01:24:08.018Z,2.93
2023-02-14T01:25:11.044Z,2.87
2023-02-14T01:26:15.058Z,3.01
2023-02-14T01:27:18.654Z,3.07
2023-02-14T01:28:21.698Z,2.98
2023-02-14T01:29:25.606Z,2.88
2023-02-14T01:30:29.044Z,2.82
2023-02-14T01:31:34.933Z,2.91
2023-02-14T01:32:38.095Z,2.95
2023-02-14T01:33:42.630Z,2.88
2023-02-14T01:34:45.840Z,2.86
2023-02-14T01:35:49.189Z,3.04
2023-02-14T01:36:52.373Z,2.90
2023-02-14T01:37:55.544Z,2.91
2023-02-14T01:39:02.612Z,2.88
2023-02-14T01:40:08.952Z,2.92
2023-02-14T01:41:13.020Z,2.86
2023-02-14T01:42:16.224Z,2.95
2023-02-14T01:43:19.468Z,3.06
2023-02-14T01:44:37.754Z,3.12
2023-02-14T01:45:41.207Z,3.10
2023-02-14T01:46:45.886Z,3.14
2023-02-14T01:47:56.869Z,3.12
2023-02-14T01:49:06.321Z,3.08
2023-02-14T01:50:14.555Z,3.13
2023-02-14T01:51:20.312Z,3.18
2023-02-14T01:52:29.269Z,3.12
2023-02-14T01:53:32.350Z,3.12
2023-02-14T01:54:40.554Z,3.14
2023-02-14T01:55:49.805Z,3.10
2023-02-14T01:57:00.167Z,3.07
2023-02-14T01:58:09.707Z,3.02
2023-02-14T01:59:20.187Z,3.04
2023-02-14T02:00:42.310Z,3.10
2023-02-14T02:01:50.288Z,3.04
2023-02-14T02:02:53.790Z,2.96
2023-02-14T02:04:01.581Z,3.08
2023-02-14T02:05:04.786Z,3.06
2023-02-14T02:06:18.864Z,3.01
2023-02-14T02:07:26.487Z,3.02
2023-02-14T02:08:29.787Z,2.97
2023-02-14T02:09:57.050Z,2.88
2023-02-14T02:11:00.451Z,2.85
2023-02-14T02:12:04.164Z,2.74
2023-02-14T02:13:09.244Z,2.69
2023-02-14T02:14:18.367Z,2.79
2023-02-14T02:15:24.229Z,2.89
2023-02-14T02:16:36.059Z,2.90
2023-02-14T02:18:09.891Z,2.80
2023-02-14T02:19:32.513Z,2.80
2023-02-14T02:21:17.464Z,2.70
2023-02-14T02:22:38.528Z,2.70
2023-02-14T02:23:57.053Z,2.68
2023-02-14T02:25:25.524Z,2.62
2023-02-14T02:26:37.851Z,2.61
2023-02-14T02:28:06.186Z,2.70
2023-02-14T02:29:32.077Z,2.68
2023-02-14T02:30:59.915Z,2.69
2023-02-14T02:32:41.917Z,2.64
2023-02-14T02:34:18.637Z,2.71
2023-02-14T02:35:31.753Z,2.57
2023-02-14T02:36:50.363Z,2.50
2023-02-14T02:38:31.275Z,2.54
2023-02-14T02:40:25.026Z,2.44
2023-02-14T02:41:46.094Z,2.33
2023-02-14T02:43:06.205Z,2.28
2023-02-14T02:44:27.327Z,2.27
2023-02-14T02:46:26.857Z,2.17
2023-02-14T02:47:59.518Z,2.11
2023-02-14T02:49:51.307Z,2.11
2023-02-14T02:51:16.548Z,2.08
2023-02-14T02:53:03.833Z,1.99
2023-02-14T02:54:38.009Z,2.02
2023-02-14T02:56:31.152Z,1.98
2023-02-14T02:57:39.968Z,1.98
2023-02-14T02:58:52.526Z,1.91
2023-02-14T02:59:57.823Z,1.84
2023-02-14T03:01:07.470Z,1.87
2023-02-14T03:02:20.192Z,1.88
2023-02-14T03:03:45.461Z,1.88
2023-02-14T03:04:55.103Z,1.86
2023-02-14T03:05:59.152Z,1.93
2023-02-14T03:07:23.439Z,1.85
2023-02-14T03:08:26.518Z,1.82
2023-02-14T03:09:31.276Z,1.80
2023-02-14T03:10:38.679Z,1.73
2023-02-14T03:11:53.458Z,1.69
2023-02-14T03:13:23.284Z,1.64
2023-02-14T03:14:41.927Z,1.70
2023-02-14T03:16:22.250Z,1.74
2023-02-14T03:17:49.495Z,1.66
2023-02-14T03:19:08.010Z,1.73
2023-02-14T03:20:18.828Z,1.68
2023-02-14T03:21:47.464Z,1.62
2023-02-14T03:22:59.965Z,1.60
2023-02-14T03:24:03.041Z,1.55
2023-02-14T03:25:20.455Z,1.55
2023-02-14T03:26:32.464Z,1.53
2023-02-14T03:27:45.471Z,1.58
2023-02-14T03:29:16.306Z,1.70
2023-02-14T03:31:03.335Z,1.75
2023-02-14T03:32:18.381Z,1.73
2023-02-14T03:33:32.305Z,1.65
2023-02-14T03:34:45.826Z,1.52
2023-02-14T03:35:55.178Z,1.56
2023-02-14T03:37:01.269Z,1.66
2023-02-14T03:38:21.051Z,1.57
2023-02-14T03:39:41.623Z,1.51
2023-02-14T03:40:58.483Z,1.49
2023-02-14T03:42:13.388Z,1.61
2023-02-14T03:43:23.242Z,1.58
2023-02-14T03:44:30.219Z,1.61
2023-02-14T03:45:38.302Z,1.77
2023-02-14T03:46:48.800Z,1.87
2023-02-14T03:47:53.049Z,1.77
2023-02-14T03:49:00.636Z,1.73
2023-02-14T03:50:10.365Z,1.71
2023-02-14T03:51:16.647Z,1.74
2023-02-14T03:52:21.705Z,1.74
2023-02-14T03:53:34.677Z,1.79
2023-02-14T03:54:37.884Z,1.85
2023-02-14T03:56:02.926Z,1.81
2023-02-14T03:57:16.636Z,1.73
2023-02-14T03:58:30.735Z,1.73
2023-02-14T03:59:34.210Z,1.69
2023-02-14T04:00:41.547Z,1.70
2023-02-14T04:01:55.208Z,1.81
2023-02-14T04:03:05.268Z,1.80
2023-02-14T04:04:09.472Z,1.81
2023-02-14T04:05:25.512Z,1.81
2023-02-14T04:06:28.747Z,1.75
2023-02-14T04:07:32.073Z,1.95
2023-02-14T04:08:35.542Z,2.01
2023-02-14T04:09:39.145Z,1.91
2023-02-14T04:10:43.834Z,1.85
2023-02-14T04:11:50.770Z,1.95
2023-02-14T04:12:54.647Z,1.91
2023-02-14T04:13:57.678Z,2.09
2023-02-14T04:15:00.799Z,2.07
2023-02-14T04:16:08.078Z,2.00
2023-02-14T04:17:30.227Z,2.12
2023-02-14T04:18:51.747Z,2.16
2023-02-14T04:19:55.112Z,2.08
2023-02-14T04:20:58.580Z,2.23
2023-02-14T04:22:02.069Z,2.19
2023-02-14T04:23:05.443Z,2.31
2023-02-14T04:24:08.952Z,2.24
2023-02-14T04:25:12.230Z,2.20
2023-02-14T04:26:15.425Z,2.14
2023-02-14T04:27:18.791Z,2.22
2023-02-14T04:28:21.959Z,2.24
2023-02-14T04:29:25.343Z,2.16
2023-02-14T04:30:28.697Z,2.18
2023-02-14T04:31:31.926Z,2.26
2023-02-14T04:32:35.229Z,2.27
2023-02-14T04:33:39.577Z,2.25
2023-02-14T04:34:43.224Z,2.40
2023-02-14T04:35:46.432Z,2.37
2023-02-14T04:36:49.462Z,2.46
2023-02-14T04:37:52.875Z,2.46
2023-02-14T04:38:55.868Z,2.47
2023-02-14T04:39:59.162Z,2.49
2023-02-14T04:41:02.701Z,2.45
2023-02-14T04:42:06.864Z,2.42
2023-02-14T04:43:09.986Z,2.53
2023-02-14T04:44:13.020Z,2.47
2023-02-14T04:45:15.981Z,2.50
2023-02-14T04:46:19.279Z,2.50
2023-02-14T04:47:22.472Z,2.56
2023-02-14T04:48:25.625Z,2.42
2023-02-14T04:49:28.580Z,2.32
2023-02-14T04:50:31.714Z,2.42
2023-02-14T04:51:34.822Z,2.35
2023-02-14T04:52:38.048Z,2.38
2023-02-14T04:53:41.038Z,2.32
2023-02-14T04:54:44.123Z,2.27
2023-02-14T04:55:49.645Z,2.28
2023-02-14T04:56:52.728Z,2.19
2023-02-14T04:57:55.997Z,2.29
2023-02-14T04:58:59.204Z,2.28
2023-02-14T05:00:02.335Z,2.14
2023-02-14T05:01:05.676Z,2.29
2023-02-14T05:02:08.859Z,2.35
2023-02-14T05:03:11.928Z,2.32
2023-02-14T05:04:15.345Z,2.28
2023-02-14T05:05:18.650Z,2.27
2023-02-14T05:06:21.836Z,2.29
2023-02-14T05:07:25.319Z,2.30
2023-02-14T05:08:28.635Z,2.17
2023-02-14T05:09:32.273Z,2.22
2023-02-14T05:10:35.335Z,2.24
2023-02-14T05:11:38.810Z,2.18
2023-02-14T05:12:42.084Z,2.15
2023-02-14T05:13:45.282Z,2.07
2023-02-14T05:14:48.518Z,2.19
2023-02-14T05:15:51.838Z,2.12
2023-02-14T05:16:55.015Z,2.14
2023-02-14T05:18:02.114Z,2.12
2023-02-14T05:19:05.445Z,2.05
2023-02-14T05:20:09.372Z,2.07
2023-02-14T05:21:12.768Z,2.08
2023-02-14T05:22:18.397Z,2.08
2023-02-14T05:23:22.379Z,2.11
2023-02-14T05:24:28.478Z,2.15
2023-02-14T05:25:32.355Z,2.24
2023-02-14T05:26:35.620Z,2.29
2023-02-14T05:27:38.910Z,2.25
2023-02-14T05:28:42.907Z,2.29
2023-02-14T05:29:46.249Z,2.27
2023-02-14T05:30:52.004Z,2.31
2023-02-14T05:31:55.229Z,2.30
2023-02-14T05:32:58.593Z,2.27
2023-02-14T05:34:01.761Z,2.27
2023-02-14T05:35:05.588Z,2.25
2023-02-14T05:36:09.578Z,2.29
2023-02-14T05:37:13.004Z,2.34
2023-02-14T05:38:16.053Z,2.34
2023-02-14T05:39:19.180Z,2.30
2023-02-14T05:41:25.133Z,2.20
2023-02-14T05:42:28.316Z,2.19
2023-02-14T05:43:32.054Z,2.15
2023-02-14T05:44:35.094Z,2.04
2023-02-14T05:45:38.357Z,2.03
2023-02-14T05:46:41.996Z,1.98
2023-02-14T05:47:45.120Z,1.97
2023-02-14T05:48:48.286Z,1.99
2023-02-14T05:49:51.496Z,1.93
2023-02-14T05:50:54.869Z,2.16
2023-02-14T05:51:58.378Z,2.10
2023-02-14T05:53:02.372Z,2.21
2023-02-14T05:54:05.516Z,2.18
2023-02-14T05:55:09.408Z,2.04
2023-02-14T05:56:13.044Z,2.05
2023-02-14T05:57:16.424Z,2.00
2023-02-14T05:58:19.546Z,1.92
2023-02-14T05:59:22.619Z,2.05
2023-02-14T06:00:26.119Z,2.01
2023-02-14T06:01:29.217Z,2.02
2023-02-14T06:02:32.875Z,2.14
2023-02-14T06:03:36.236Z,2.16
2023-02-14T06:04:39.428Z,2.21
2023-02-14T06:05:42.486Z,2.22
2023-02-14T06:06:45.708Z,2.29
2023-02-14T06:07:53.070Z,2.30
2023-02-14T06:08:56.240Z,2.37
2023-02-14T06:09:59.276Z,2.31
2023-02-14T06:11:02.526Z,2.33
2023-02-14T06:12:05.885Z,2.37
2023-02-14T06:13:09.229Z,2.41
2023-02-14T06:14:12.361Z,2.32
2023-02-14T06:15:15.976Z,2.40
2023-02-14T06:16:19.217Z,2.31
2023-02-14T06:17:22.628Z,2.29
2023-02-14T06:18:28.444Z,2.30
2023-02-14T06:19:31.475Z,2.31
2023-02-14T06:20:34.740Z,2.30
2023-02-14T06:21:38.080Z,2.22
2023-02-14T06:22:41.254Z,2.17
2023-02-14T06:23:44.620Z,2.13
2023-02-14T06:24:47.776Z,2.09
2023-02-14T06:25:51.016Z,2.07
2023-02-14T06:26:54.135Z,2.06
2023-02-14T06:27:58.720Z,2.04
2023-02-14T06:29:03.388Z,2.01
2023-02-14T06:30:07.726Z,2.02
2023-02-14T06:31:17.445Z,1.97
2023-02-14T06:32:20.628Z,1.94
2023-02-14T06:33:23.909Z,2.01
2023-02-14T06:34:27.119Z,1.98
2023-02-14T06:35:30.367Z,1.96
2023-02-14T06:36:34.113Z,2.01
2023-02-14T06:37:39.126Z,1.97
2023-02-14T06:38:42.307Z,1.93
2023-02-14T06:39:45.756Z,1.95
2023-02-14T06:40:48.923Z,2.03
2023-02-14T06:41:51.976Z,2.01
2023-02-14T06:42:54.991Z,2.04
2023-02-14T06:43:58.231Z,2.06
2023-02-14T06:45:02.926Z,2.17
2023-02-14T06:46:07.079Z,2.15
2023-02-14T06:47:10.198Z,2.22
2023-02-14T06:48:13.408Z,2.30
2023-02-14T06:49:16.655Z,2.31
2023-02-14T06:50:19.928Z,2.23
2023-02-14T06:51:23.054Z,2.22
2023-02-14T06:52:27.133Z,2.39
2023-02-14T06:53:30.264Z,2.34
2023-02-14T06:54:33.347Z,2.45
2023-02-14T06:55:36.364Z,2.34
2023-02-14T06:56:39.461Z,2.35
2023-02-14T06:57:42.505Z,2.41
2023-02-14T06:58:45.646Z,2.37
2023-02-14T06:59:48.813Z,2.32
2023-02-14T07:00:52.194Z,2.31
2023-02-14T07:01:55.308Z,2.51
2023-02-14T07:02:59.041Z,2.50
2023-02-14T07:04:02.369Z,2.46
2023-02-14T07:05:05.654Z,2.41
2023-02-14T07:06:09.024Z,2.56
2023-02-14T07:07:12.292Z,2.61
2023-02-14T07:08:16.361Z,2.61
2023-02-14T07:09:19.681Z,2.69
2023-02-14T07:10:22.795Z,2.66
2023-02-14T07:11:26.684Z,2.74
2023-02-14T07:12:29.813Z,2.82
2023-02-14T07:13:32.931Z,2.77
2023-02-14T07:14:35.947Z,2.82
2023-02-14T07:15:39.251Z,2.78
2023-02-14T07:16:42.841Z,2.93
2023-02-14T07:17:46.140Z,3.10
2023-02-14T07:18:49.467Z,3.09
2023-02-14T07:19:52.510Z,3.09
2023-02-14T07:20:55.968Z,3.14
2023-02-14T07:21:59.155Z,3.07
2023-02-14T07:23:02.368Z,3.13
2023-02-14T07:24:05.470Z,3.06
2023-02-14T07:25:08.799Z,3.09
2023-02-14T07:26:11.949Z,3.18
2023-02-14T07:27:15.219Z,3.36
2023-02-14T07:28:18.329Z,3.33
2023-02-14T07:29:21.663Z,3.42
2023-02-14T07:30:25.562Z,3.47
2023-02-14T07:31:29.079Z,3.51
2023-02-14T07:32:32.492Z,3.44
2023-02-14T07:33:36.378Z,3.41
2023-02-14T07:34:39.443Z,3.39
2023-02-14T07:35:42.445Z,3.42
2023-02-14T07:36:45.678Z,3.46
2023-02-14T07:37:51.115Z,3.52
2023-02-14T07:38:56.859Z,3.53
2023-02-14T07:40:08.735Z,3.67
2023-02-14T07:41:16.140Z,3.78
2023-02-14T07:42:19.195Z,3.88
2023-02-14T07:43:22.537Z,3.90
2023-02-14T07:44:25.827Z,3.96
2023-02-14T07:45:28.940Z,3.98
2023-02-14T07:46:32.092Z,4.05
2023-02-14T07:47:35.436Z,4.06
2023-02-14T07:48:39.600Z,4.05
2023-02-14T07:49:42.830Z,4.04
2023-02-14T07:50:45.975Z,4.14
2023-02-14T07:51:49.526Z,4.21
2023-02-14T07:52:52.813Z,4.27
2023-02-14T07:53:55.968Z,4.31
2023-02-14T07:54:59.083Z,4.25
2023-02-14T07:56:02.265Z,4.26
2023-02-14T07:57:06.784Z,4.35
2023-02-14T07:58:10.142Z,4.45
2023-02-14T07:59:13.371Z,4.46
2023-02-14T08:00:16.908Z,4.51
2023-02-14T08:01:21.347Z,4.50
2023-02-14T08:02:24.501Z,4.51
2023-02-14T08:03:27.643Z,4.52
2023-02-14T08:04:32.941Z,4.61
2023-02-14T08:05:36.899Z,4.61
2023-02-14T08:06:41.198Z,4.66
2023-02-14T08:07:44.672Z,4.83
2023-02-14T08:08:48.791Z,4.79
2023-02-14T08:09:51.770Z,4.81
2023-02-14T08:10:55.349Z,4.83
2023-02-14T08:12:18.078Z,4.86
2023-02-14T08:13:22.015Z,4.85
2023-02-14T08:14:25.165Z,4.85
2023-02-14T08:15:52.156Z,4.86
2023-02-14T08:16:55.666Z,5.06
2023-02-14T08:17:58.848Z,5.16
2023-02-14T08:19:02.715Z,5.14
2023-02-14T08:20:06.529Z,5.13
2023-02-14T08:21:11.720Z,5.19
2023-02-14T08:22:14.997Z,5.20
2023-02-14T08:23:19.233Z,5.27
2023-02-14T08:24:22.381Z,5.29
2023-02-14T08:25:25.690Z,5.24
2023-02-14T08:26:28.845Z,5.29
2023-02-14T08:27:32.586Z,5.39
2023-02-14T08:28:36.109Z,5.35
2023-02-14T08:29:39.301Z,5.37
2023-02-14T08:30:43.871Z,5.34
2023-02-14T08:31:47.853Z,5.41
2023-02-14T08:32:50.977Z,5.46
2023-02-14T08:33:54.345Z,5.50
2023-02-14T08:34:57.370Z,5.60
2023-02-14T08:36:00.768Z,5.63
2023-02-14T08:37:03.826Z,5.69
2023-02-14T08:38:07.313Z,5.72
2023-02-14T08:39:11.157Z,5.71
2023-02-14T08:40:15.130Z,5.71
2023-02-14T08:41:19.355Z,5.65
2023-02-14T08:42:22.474Z,5.75
2023-02-14T08:43:25.612Z,5.82
2023-02-14T08:44:28.666Z,5.89
2023-02-14T08:45:31.797Z,5.96
2023-02-14T08:46:35.945Z,5.98
2023-02-14T08:47:40.598Z,5.87
2023-02-14T08:48:44.907Z,5.87
2023-02-14T08:49:48.816Z,6.03
2023-02-14T08:50:52.228Z,6.02
2023-02-14T08:51:55.661Z,6.01
2023-02-14T08:52:58.794Z,6.06
2023-02-14T08:54:02.227Z,6.06
2023-02-14T08:55:05.669Z,6.06
2023-02-14T08:56:14.069Z,6.06
2023-02-14T08:57:17.818Z,6.13
2023-02-14T08:58:21.327Z,6.04
2023-02-14T08:59:24.736Z,5.98
2023-02-14T09:00:28.642Z,5.97
2023-02-14T09:01:32.364Z,5.97
2023-02-14T09:02:35.803Z,5.90
2023-02-14T09:03:39.772Z,5.90
2023-02-14T09:04:43.136Z,5.92
2023-02-14T09:05:46.433Z,5.99
2023-02-14T09:06:49.561Z,6.03
2023-02-14T09:07:56.578Z,6.14
2023-02-14T09:09:01.580Z,6.12
2023-02-14T09:10:06.255Z,6.08
2023-02-14T09:11:15.711Z,6.08
2023-02-14T09:12:19.421Z,6.15
2023-02-14T09:13:22.577Z,6.19
2023-02-14T09:14:25.834Z,6.11
2023-02-14T09:15:29.236Z,6.04
2023-02-14T09:16:32.520Z,6.03
2023-02-14T09:17:36.599Z,6.16
2023-02-14T09:18:40.669Z,6.18
2023-02-14T09:19:44.037Z,6.27
2023-02-14T09:20:47.607Z,6.21
2023-02-14T09:21:51.012Z,6.18
2023-02-14T09:22:57.485Z,6.26
2023-02-14T09:24:00.649Z,6.41
2023-02-14T09:25:04.230Z,6.38
2023-02-14T09:26:11.745Z,6.48
2023-02-14T09:27:18.155Z,6.52
2023-02-14T09:28:21.306Z,6.43
2023-02-14T09:29:25.940Z,6.44
2023-02-14T09:30:29.224Z,6.36
2023-02-14T09:31:33.380Z,6.37
2023-02-14T09:32:37.249Z,6.41
2023-02-14T09:33:59.575Z,6.39
2023-02-14T09:35:21.522Z,6.37
2023-02-14T09:36:42.754Z,6.31
2023-02-14T09:37:46.792Z,6.21
2023-02-14T09:38:49.957Z,6.24
2023-02-14T09:39:53.130Z,6.21
2023-02-14T09:40:56.149Z,6.28
2023-02-14T09:42:15.266Z,6.23
2023-02-14T09:43:46.642Z,6.22
2023-02-14T09:45:08.792Z,6.29
2023-02-14T09:46:16.866Z,6.24
2023-02-14T09:47:28.459Z,6.13
2023-02-14T09:48:44.146Z,6.13
2023-02-14T09:49:49.475Z,6.09
2023-02-14T09:50:58.575Z,6.05
2023-02-14T09:52:04.407Z,6.05
2023-02-14T09:53:13.849Z,6.04
2023-02-14T09:54:23.382Z,6.04
2023-02-14T09:55:32.441Z,6.15
2023-02-14T09:56:57.468Z,6.33
2023-02-14T09:58:16.104Z,6.49
2023-02-14T09:59:29.036Z,6.52
2023-02-14T10:00:46.383Z,6.48
2023-02-14T10:02:16.257Z,6.48
2023-02-14T10:03:40.757Z,6.51
2023-02-14T10:05:24.582Z,6.59
2023-02-14T10:06:43.220Z,6.79
2023-02-14T10:07:47.815Z,6.76
2023-02-14T10:09:16.919Z,6.83
2023-02-14T10:10:25.878Z,6.80
2023-02-14T10:11:29.782Z,6.84
2023-02-14T10:12:43.264Z,6.99
2023-02-14T10:14:09.483Z,6.98
2023-02-14T10:15:27.345Z,6.87
2023-02-14T10:16:43.190Z,6.80
2023-02-14T10:18:24.186Z,6.87
2023-02-14T10:19:35.106Z,6.89
2023-02-14T10:20:59.392Z,6.82
2023-02-14T10:22:08.963Z,6.74
2023-02-14T10:23:28.344Z,6.73
2023-02-14T10:24:40.831Z,6.69
2023-02-14T10:25:57.485Z,6.68
2023-02-14T10:27:11.738Z,6.68
2023-02-14T10:28:18.081Z,6.66
2023-02-14T10:29:22.392Z,6.68
2023-02-14T10:30:26.339Z,6.70
2023-02-14T10:31:38.149Z,6.71
2023-02-14T10:33:08.575Z,6.68
2023-02-14T10:34:39.620Z,6.66
2023-02-14T10:35:49.755Z,6.61
2023-02-14T10:36:52.767Z,6.58
2023-02-14T10:38:04.733Z,6.59
2023-02-14T10:39:44.855Z,6.57
2023-02-14T10:41:14.531Z,6.59
2023-02-14T10:42:34.445Z,6.58
2023-02-14T10:43:53.917Z,6.68
2023-02-14T10:45:02.625Z,6.70
2023-02-14T10:46:18.096Z,6.58
2023-02-14T10:47:30.097Z,6.65
2023-02-14T10:48:52.034Z,6.70
2023-02-14T10:50:10.350Z,6.70
2023-02-14T10:51:33.787Z,6.62
2023-02-14T10:52:40.898Z,6.59
2023-02-14T10:53:46.873Z,6.59
2023-02-14T10:55:30.084Z,6.62
2023-02-14T10:56:40.571Z,6.65
2023-02-14T10:57:48.929Z,6.72
2023-02-14T10:58:56.987Z,6.74
2023-02-14T11:00:22.187Z,6.83
2023-02-14T11:01:25.957Z,6.97
2023-02-14T11:02:43.288Z,7.10
2023-02-14T11:03:56.745Z,7.31
2023-02-14T11:05:03.731Z,7.50
2023-02-14T11:06:09.261Z,7.51
2023-02-14T11:07:15.111Z,7.50
2023-02-14T11:08:29.549Z,7.46
2023-02-14T11:09:32.720Z,7.43
2023-02-14T11:10:36.747Z,7.41
2023-02-14T11:11:52.128Z,7.42
2023-02-14T11:12:55.166Z,7.34
2023-02-14T11:13:58.419Z,7.38
2023-02-14T11:15:12.071Z,7.34
2023-02-14T11:16:32.387Z,7.33
2023-02-14T11:17:37.683Z,7.46
2023-02-14T11:18:41.882Z,7.47
2023-02-14T11:19:59.446Z,7.51
2023-02-14T11:21:04.056Z,7.48
2023-02-14T11:22:10.606Z,7.53
2023-02-14T11:23:25.095Z,7.66
2023-02-14T11:24:35.224Z,7.76
2023-02-14T11:25:38.871Z,7.74
2023-02-14T11:26:47.700Z,7.78
2023-02-14T11:28:16.587Z,7.74
2023-02-14T11:29:45.282Z,7.90
2023-02-14T11:30:51.238Z,7.99
2023-02-14T11:31:55.182Z,7.97
2023-02-14T11:32:58.324Z,7.95
2023-02-14T11:34:05.019Z,7.86
2023-02-14T11:35:20.207Z,7.88
2023-02-14T11:36:24.061Z,7.89
2023-02-14T11:37:34.631Z,7.81
2023-02-14T11:38:40.397Z,7.76
2023-02-14T11:39:43.727Z,7.70
2023-02-14T11:40:56.416Z,7.67
2023-02-14T11:42:04.477Z,7.67
2023-02-14T11:43:15.128Z,7.68
2023-02-14T11:44:23.029Z,7.67
2023-02-14T11:45:31.094Z,7.65
2023-02-14T11:46:44.278Z,7.62
2023-02-14T11:48:19.969Z,7.60
2023-02-14T11:49:32.296Z,7.59
2023-02-14T11:50:37.506Z,7.61
2023-02-14T11:51:45.778Z,7.64
2023-02-14T11:52:53.382Z,7.62
2023-02-14T11:54:05.670Z,7.64
2023-02-14T11:55:25.452Z,7.66
2023-02-14T11:56:49.409Z,7.64
2023-02-14T11:57:52.780Z,7.63
2023-02-14T11:59:05.999Z,7.63
2023-02-14T12:00:19.293Z,7.68
2023-02-14T12:01:33.005Z,7.73
2023-02-14T12:02:42.386Z,7.71
2023-02-14T12:03:48.876Z,7.75
2023-02-14T12:04:56.361Z,7.71
2023-02-14T12:06:01.366Z,7.70
2023-02-14T12:07:18.643Z,7.70
2023-02-14T12:08:28.539Z,7.73
2023-02-14T12:09:32.386Z,7.74
2023-02-14T12:10:37.410Z,7.76
2023-02-14T12:11:40.680Z,7.74
2023-02-14T12:12:55.996Z,7.76
2023-02-14T12:13:59.203Z,7.75
2023-02-14T12:15:38.949Z,7.81
2023-02-14T12:16:58.751Z,7.96
2023-02-14T12:18:26.466Z,8.02
2023-02-14T12:19:48.259Z,8.10
2023-02-14T12:21:00.684Z,8.20
2023-02-14T12:22:07.286Z,8.24
2023-02-14T12:23:42.985Z,8.33
2023-02-14T12:25:12.094Z,8.32
2023-02-14T12:26:36.073Z,8.34
2023-02-14T12:27:50.711Z,8.44
2023-02-14T12:29:15.075Z,8.38
2023-02-14T12:30:24.502Z,8.43
2023-02-14T12:31:28.070Z,8.44
2023-02-14T12:32:32.440Z,8.50
2023-02-14T12:33:36.469Z,8.67
2023-02-14T12:34:42.690Z,8.71
2023-02-14T12:35:59.975Z,8.78
2023-02-14T12:37:23.959Z,8.61
2023-02-14T12:39:11.927Z,8.52
2023-02-14T12:40:23.675Z,8.28
2023-02-14T12:41:50.727Z,8.19
2023-02-14T12:43:11.556Z,8.08
2023-02-14T12:44:43.888Z,8.01
2023-02-14T12:46:03.008Z,8.02
2023-02-14T12:47:15.319Z,8.06
2023-02-14T12:48:38.926Z,8.02
2023-02-14T12:50:03.296Z,7.98
2023-02-14T12:51:30.352Z,8.02
2023-02-14T12:52:51.832Z,8.00
2023-02-14T12:54:13.040Z,7.94
2023-02-14T12:55:25.533Z,7.92
2023-02-14T12:56:42.674Z,7.88
2023-02-14T12:58:21.442Z,7.89
2023-02-14T12:59:35.474Z,7.96
2023-02-14T13:01:04.325Z,7.88
2023-02-14T13:03:13.951Z,7.84
2023-02-14T13:04:49.376Z,7.73
2023-02-14T13:06:18.059Z,7.65
2023-02-14T13:07:49.969Z,7.57
2023-02-14T13:09:01.849Z,7.52
2023-02-14T13:10:12.794Z,7.52
2023-02-14T13:11:34.158Z,7.47
2023-02-14T13:13:05.564Z,7.47
2023-02-14T13:14:25.433Z,7.43
2023-02-14T13:15:43.318Z,7.43
2023-02-14T13:16:55.391Z,7.40
2023-02-14T13:18:36.265Z,7.41
2023-02-14T13:19:50.929Z,7.36
2023-02-14T13:20:58.013Z,7.34
2023-02-14T13:22:04.346Z,7.32
2023-02-14T13:23:33.436Z,7.37
2023-02-14T13:24:43.031Z,7.41
2023-02-14T13:25:55.038Z,7.49
2023-02-14T13:27:03.318Z,7.55
2023-02-14T13:28:12.236Z,7.61
2023-02-14T13:29:20.954Z,7.74
2023-02-14T13:30:34.154Z,7.82
2023-02-14T13:31:38.965Z,7.93
2023-02-14T13:32:47.312Z,8.05
2023-02-14T13:34:07.335Z,8.10
2023-02-14T13:35:17.792Z,8.16
2023-02-14T13:36:22.278Z,8.20
2023-02-14T13:37:28.115Z,8.37
2023-02-14T13:38:33.225Z,8.39
2023-02-14T13:39:44.436Z,8.62
2023-02-14T13:40:48.598Z,8.62
2023-02-14T13:41:51.965Z,8.58
2023-02-14T13:43:02.508Z,8.53
2023-02-14T13:44:05.715Z,8.54
2023-02-14T13:45:40.960Z,8.49
2023-02-14T13:46:49.476Z,8.55
2023-02-14T13:48:06.827Z,8.53
2023-02-14T13:49:24.849Z,8.51
2023-02-14T13:50:28.634Z,8.52
2023-02-14T13:51:52.846Z,8.56
2023-02-14T13:52:56.024Z,8.62
2023-02-14T13:53:59.081Z,8.70
2023-02-14T13:55:06.543Z,8.70
2023-02-14T13:56:13.511Z,8.62
2023-02-14T13:57:29.319Z,8.65
2023-02-14T13:58:35.869Z,8.61
2023-02-14T13:59:39.099Z,8.56
2023-02-14T14:00:44.638Z,8.46
2023-02-14T14:01:51.700Z,8.42
2023-02-14T14:02:57.078Z,8.35
2023-02-14T14:04:04.811Z,8.29
2023-02-14T14:05:30.058Z,8.20
2023-02-14T14:07:05.462Z,8.18
2023-02-14T14:08:20.997Z,8.23
2023-02-14T14:09:42.268Z,8.24
2023-02-14T14:10:49.484Z,8.27
2023-02-14T14:11:52.900Z,8.24
2023-02-14T14:12:56.036Z,8.29
2023-02-14T14:14:22.277Z,8.35
2023-02-14T14:15:25.488Z,8.45
2023-02-14T14:16:35.513Z,8.49
2023-02-14T14:17:47.738Z,8.36
2023-02-14T14:18:52.987Z,8.27
2023-02-14T14:19:58.397Z,8.30
2023-02-14T14:21:04.454Z,8.31
2023-02-14T14:22:15.508Z,8.33
2023-02-14T14:23:32.236Z,8.32
2023-02-14T14:24:52.212Z,8.30
2023-02-14T14:25:55.632Z,8.23
2023-02-14T14:27:03.598Z,8.17
2023-02-14T14:28:19.917Z,8.21
2023-02-14T14:29:35.899Z,8.17
2023-02-14T14:30:44.692Z,8.16
2023-02-14T14:31:56.079Z,8.07
2023-02-14T14:33:29.104Z,8.00
2023-02-14T14:34:32.628Z,7.96
2023-02-14T14:35:36.098Z,8.00
2023-02-14T14:36:39.580Z,8.00
2023-02-14T14:37:50.864Z,7.97
2023-02-14T14:38:54.533Z,7.95
2023-02-14T14:40:00.857Z,7.96
2023-02-14T14:41:04.063Z,7.92
2023-02-14T14:42:29.417Z,7.96
2023-02-14T14:43:37.036Z,7.90
2023-02-14T14:44:56.910Z,7.89
2023-02-14T14:46:02.968Z,7.89
2023-02-14T14:47:11.717Z,7.87
2023-02-14T14:48:39.838Z,7.86
2023-02-14T14:49:44.224Z,7.76
2023-02-14T14:50:50.709Z,7.68
2023-02-14T14:51:55.289Z,7.64
2023-02-14T14:53:03.059Z,7.60
2023-02-14T14:54:28.016Z,7.61
2023-02-14T14:55:38.255Z,7.71
2023-02-14T14:57:02.003Z,7.64
2023-02-14T14:58:09.526Z,7.66
2023-02-14T14:59:30.902Z,7.72
2023-02-14T15:00:36.962Z,7.68
2023-02-14T15:01:41.079Z,7.62
2023-02-14T15:02:56.890Z,7.58
2023-02-14T15:04:12.539Z,7.53
2023-02-14T15:05:30.066Z,7.52
2023-02-14T15:06:33.320Z,7.46
2023-02-14T15:07:36.843Z,7.43
2023-02-14T15:08:40.049Z,7.48
2023-02-14T15:09:44.644Z,7.37
2023-02-14T15:11:44.596Z,7.32
2023-02-14T15:13:06.350Z,7.24
2023-02-14T15:14:17.830Z,7.30
2023-02-14T15:15:20.875Z,7.23
2023-02-14T15:16:23.944Z,7.19
2023-02-14T15:17:33.277Z,7.15
2023-02-14T15:18:36.654Z,7.10
2023-02-14T15:19:44.876Z,7.12
2023-02-14T15:20:52.479Z,7.10
2023-02-14T15:21:56.535Z,7.08
2023-02-14T15:22:59.983Z,7.04
2023-02-14T15:24:04.308Z,7.00